Time;durP1;ratioP1;P1;durP2;ratioP2;P2;SDS_P1;SDS_P2;PMS_P1;PMS_P2;Temp;Humidity;BMP_temperature;BMP_pressure;BME280_temperature;BME280_humidity;BME280_pressure;Samples;Min_cycle;Max_cycle;Signal;HPM_P1;HPM_P2
2021/05/08 00:00:37;;;;;;;4.97;3.10;;;;;;;18.94;51.71;99666.53;1849240;77;21508;-77
2021/05/08 00:03:04;;;;;;;4.40;3.30;;;;;;;18.93;51.78;99664.34;1848932;77;21132;-78
2021/05/08 00:05:31;;;;;;;5.25;3.50;;;;;;;18.93;51.80;99651.31;1849170;77;21049;-79
2021/05/08 00:08:00;;;;;;;7.42;3.05;;;;;;;18.91;51.90;99656.98;1848837;77;21114;-77
2021/05/08 00:10:27;;;;;;;;;;;;;;;18.91;52.07;99653.45;1851655;77;21134;-77
2021/05/08 00:12:54;;;;;;;4.05;3.20;;;;;;;18.94;51.92;99651.61;1848954;77;20210;-77
2021/05/08 00:15:21;;;;;;;;;;;;;;;18.88;51.70;99657.97;1851624;77;21062;-77
2021/05/08 00:17:50;;;;;;;7.20;3.70;;;;;;;18.80;51.82;99652.88;1848890;77;20214;-77
2021/05/08 00:20:17;;;;;;;3.42;2.58;;;;;;;18.79;51.78;99646.62;1849187;77;21148;-78
2021/05/08 00:22:45;;;;;;;6.65;2.98;;;;;;;18.77;51.51;99649.28;1849068;77;21149;-78
2021/05/08 00:25:12;;;;;;;;;;;;;;;18.80;51.76;99660.48;1851621;77;21038;-77
2021/05/08 00:27:40;;;;;;;6.23;3.27;;;;;;;18.96;51.51;99673.92;1849341;77;20218;-77
2021/05/08 00:30:12;;;;;;;7.22;3.67;;;;;;;19.12;51.22;99665.13;1849028;77;21447;-77
2021/05/08 00:32:39;;;;;;;6.17;3.45;;;;;;;19.28;50.82;99670.39;1849446;77;21065;-77
2021/05/08 00:35:08;;;;;;;6.75;3.60;;;;;;;19.36;50.71;99677.38;1849170;77;21141;-77
2021/05/08 00:37:35;;;;;;;5.85;3.77;;;;;;;19.43;50.57;99684.33;1849059;77;21098;-77
2021/05/08 00:40:04;;;;;;;10.00;4.33;;;;;;;19.51;50.34;99693.48;1849051;77;21061;-77
2021/05/08 00:42:31;;;;;;;26.05;7.37;;;;;;;19.61;50.09;99693.47;1849051;77;21070;-78
2021/05/08 00:44:58;;;;;;;21.65;6.58;;;;;;;19.70;49.84;99688.80;1849047;77;21053;-79
2021/05/08 00:47:26;;;;;;;16.95;5.87;;;;;;;19.80;49.45;99688.73;1849281;77;21125;-79
2021/05/08 00:49:53;;;;;;;;;;;;;;;19.86;49.21;99685.91;1828465;77;21591;-79
2021/05/08 00:52:21;;;;;;;11.60;4.15;;;;;;;19.90;48.94;99680.30;1849656;77;20218;-79
2021/05/08 00:54:51;;;;;;;8.68;4.28;;;;;;;19.92;48.85;99683.59;1849361;77;21078;-78
2021/05/08 00:57:18;;;;;;;4.55;3.25;;;;;;;19.94;48.82;99673.83;1848959;77;21141;-78
2021/05/08 00:59:46;;;;;;;5.83;3.20;;;;;;;19.96;48.75;99658.95;1848402;77;21181;-78
2021/05/08 01:02:13;;;;;;;6.40;3.40;;;;;;;19.99;48.63;99650.32;1824989;77;21165;-78
2021/05/08 01:04:41;;;;;;;12.60;4.65;;;;;;;19.95;48.62;99645.06;1848920;77;21492;-78
2021/05/08 01:07:10;;;;;;;12.88;5.30;;;;;;;19.97;48.47;99635.30;1849773;77;21042;-79
2021/05/08 01:09:39;;;;;;;16.05;6.20;;;;;;;20.00;48.38;99641.63;1850491;77;21081;-77
2021/05/08 01:12:07;;;;;;;16.20;6.72;;;;;;;19.95;48.41;99627.40;1849000;77;21109;-78
2021/05/08 01:14:35;;;;;;;15.25;6.40;;;;;;;19.90;48.40;99625.94;1849139;77;21579;-80
2021/05/08 01:17:03;;;;;;;14.23;5.95;;;;;;;19.86;48.39;99624.76;1849784;77;23400;-78
2021/05/08 01:19:34;;;;;;;10.48;4.47;;;;;;;19.83;48.48;99602.13;1848997;77;21045;-79
2021/05/08 01:22:02;;;;;;;11.75;5.83;;;;;;;19.82;48.49;99607.81;1825778;77;21102;-77
2021/05/08 01:24:30;;;;;;;11.55;4.50;;;;;;;19.75;48.58;99616.90;1826782;77;21058;-80
2021/05/08 01:26:58;;;;;;;12.35;4.70;;;;;;;19.78;48.58;99618.86;1849564;77;21046;-79
2021/05/08 01:29:25;;;;;;;8.00;4.65;;;;;;;19.82;48.54;99622.22;1849528;77;21101;-79
2021/05/08 01:31:53;;;;;;;8.00;4.75;;;;;;;19.85;48.54;99622.26;1849350;77;21184;-79
2021/05/08 01:34:21;;;;;;;6.65;4.30;;;;;;;19.85;48.47;99620.39;1850644;77;21063;-78
2021/05/08 01:36:49;;;;;;;12.68;5.37;;;;;;;19.84;48.33;99623.33;1851130;77;21070;-77
2021/05/08 01:39:16;;;;;;;8.53;3.85;;;;;;;19.86;48.37;99630.73;1850907;77;21109;-77
2021/05/08 01:41:45;;;;;;;12.88;5.58;;;;;;;19.85;48.21;99624.47;1851329;77;21109;-78
2021/05/08 01:44:12;;;;;;;11.68;4.83;;;;;;;19.86;48.28;99619.33;1851532;77;21074;-77
2021/05/08 01:46:39;;;;;;;;;;;;;;;19.86;48.13;99615.25;1854089;77;21035;-79
2021/05/08 01:49:07;;;;;;;11.97;5.37;;;;;;;19.85;48.02;99614.11;1850361;77;20225;-79
2021/05/08 01:51:34;;;;;;;;;;;;;;;19.82;48.03;99607.28;1852295;77;21524;-79
2021/05/08 01:54:02;;;;;;;13.43;5.78;;;;;;;19.81;48.13;99607.53;1849476;77;20467;-79
2021/05/08 01:56:30;;;;;;;22.48;6.20;;;;;;;19.79;48.14;99605.56;1849449;77;21074;-79
2021/05/08 01:58:59;;;;;;;15.58;8.68;;;;;;;19.79;48.15;99609.64;1849578;77;21081;-79
2021/05/08 02:01:28;;;;;;;16.48;7.95;;;;;;;19.80;48.10;99611.28;1849163;77;21066;-79
2021/05/08 02:03:56;;;;;;;16.12;6.28;;;;;;;19.81;48.04;99606.17;1849157;77;21133;-79
2021/05/08 02:06:23;;;;;;;11.73;5.28;;;;;;;19.85;47.98;99600.02;1849173;77;21571;-77
2021/05/08 02:08:55;;;;;;;10.98;5.25;;;;;;;19.84;48.00;99603.77;1847547;77;21141;-77
2021/05/08 02:11:25;;;;;;;11.08;5.15;;;;;;;19.84;48.01;99602.95;1848183;77;21129;-77
2021/05/08 02:13:52;;;;;;;11.68;4.28;;;;;;;19.81;48.03;99598.84;1848715;77;21086;-77
2021/05/08 02:16:20;;;;;;;9.43;4.40;;;;;;;19.82;47.96;99597.77;1848793;77;21062;-77
2021/05/08 02:18:48;;;;;;;8.03;4.70;;;;;;;19.77;48.00;99596.30;1848861;77;21106;-77
2021/05/08 02:21:16;;;;;;;9.35;4.42;;;;;;;19.70;48.21;99593.70;1825539;77;21145;-77
2021/05/08 02:23:45;;;;;;;8.70;4.70;;;;;;;19.70;48.34;99602.39;1848913;77;21134;-77
2021/05/08 02:26:13;;;;;;;10.03;4.87;;;;;;;19.75;48.37;99598.41;1849394;77;21054;-77
2021/05/08 02:28:40;;;;;;;9.20;4.97;;;;;;;19.81;48.26;99590.69;1849687;77;21470;-77
2021/05/08 02:31:08;;;;;;;9.03;4.30;;;;;;;19.85;48.07;99592.36;1849122;77;21106;-77
2021/05/08 02:33:35;;;;;;;7.80;4.08;;;;;;;19.90;48.04;99593.86;1848831;77;21117;-77
2021/05/08 02:36:03;;;;;;;9.43;4.75;;;;;;;19.95;48.03;99593.42;1848844;77;21058;-77
2021/05/08 02:38:31;;;;;;;10.45;5.72;;;;;;;19.99;48.04;99577.47;1848826;77;21085;-77
2021/05/08 02:40:58;;;;;;;13.40;5.22;;;;;;;20.02;48.03;99581.04;1848862;77;21050;-76
2021/05/08 02:43:27;;;;;;;10.10;5.33;;;;;;;20.05;48.03;99586.00;1849102;77;21117;-77
2021/05/08 02:45:56;;;;;;;13.65;6.47;;;;;;;20.07;47.85;99590.66;1848790;76;21564;-77
2021/05/08 02:48:23;;;;;;;14.93;6.40;;;;;;;20.04;47.89;99589.80;1848375;77;21184;-77
2021/05/08 02:50:52;;;;;;;17.95;5.83;;;;;;;20.05;47.83;99593.34;1848461;77;21543;-77
2021/05/08 02:53:20;;;;;;;20.65;7.00;;;;;;;20.01;47.95;99586.19;1848923;77;21481;-76
2021/05/08 02:55:47;;;;;;;33.48;9.28;;;;;;;19.99;47.98;99597.85;1849172;77;21126;-77
2021/05/08 02:58:15;;;;;;;30.60;9.78;;;;;;;19.97;48.15;99599.97;1849254;77;21157;-77
2021/05/08 03:00:44;;;;;;;38.92;10.38;;;;;;;19.96;48.25;99601.04;1850053;77;21157;-77
2021/05/08 03:03:13;;;;;;;28.77;9.83;;;;;;;19.94;48.23;99595.86;1849627;77;21097;-78
2021/05/08 03:05:41;;;;;;;26.05;9.33;;;;;;;19.94;48.15;99589.56;1848871;77;21046;-78
2021/05/08 03:08:15;;;;;;;19.55;8.10;;;;;;;19.90;48.24;99597.40;1848933;77;21145;-78
2021/05/08 03:10:42;;;;;;;28.15;8.75;;;;;;;19.86;48.42;99589.97;1849037;77;21046;-78
2021/05/08 03:13:10;;;;;;;17.23;6.28;;;;;;;19.81;48.58;99591.22;1849280;77;21488;-78
2021/05/08 03:15:38;;;;;;;14.43;7.12;;;;;;;19.81;48.73;99596.66;1849162;76;21109;-78
2021/05/08 03:18:05;;;;;;;13.22;6.53;;;;;;;19.84;48.76;99596.98;1848971;77;21098;-78
2021/05/08 03:20:33;;;;;;;12.37;6.00;;;;;;;19.85;48.92;99597.30;1849169;77;21054;-78
2021/05/08 03:23:00;;;;;;;10.20;6.25;;;;;;;19.86;49.01;99600.84;1848293;77;21173;-78
2021/05/08 03:25:28;;;;;;;13.18;5.50;;;;;;;19.88;48.98;99601.41;1847875;77;21622;-79
2021/05/08 03:27:55;;;;;;;13.43;6.90;;;;;;;19.90;48.98;99611.52;1847807;77;21173;-78
2021/05/08 03:30:24;;;;;;;11.25;5.67;;;;;;;19.88;48.99;99604.13;1824345;77;21221;-79
2021/05/08 03:32:53;;;;;;;24.05;8.83;;;;;;;19.86;49.06;99594.86;1849009;77;21133;-78
2021/05/08 03:35:21;;;;;;;26.20;8.58;;;;;;;19.87;49.03;99588.36;1848298;77;21141;-77
2021/05/08 03:37:49;;;;;;;31.33;9.68;;;;;;;19.91;48.99;99579.20;1848168;77;21054;-79
2021/05/08 03:40:16;;;;;;;;;;;;;;;19.93;48.88;99579.77;1819014;79;21587;-78
2021/05/08 03:42:46;;;;;;;;;;;;;;;19.93;48.87;99575.69;1818987;78;20205;-79
2021/05/08 03:45:14;;;;;;;;;;;;;;;19.86;49.08;99584.53;1835213;78;20300;-80
2021/05/08 03:47:42;;;;;;;;;;;;;;;19.83;49.14;99589.08;1820694;79;20200;-77
2021/05/08 03:50:10;;;;;;;;;;;;;;;19.88;49.03;99589.18;1820745;79;20140;-77
2021/05/08 03:52:37;;;;;;;;;;;;;;;19.86;48.99;99592.69;1820592;79;20208;-77
2021/05/08 03:55:06;;;;;;;;;;;;;;;19.85;49.09;99586.42;1821075;79;20231;-77
2021/05/08 03:57:33;;;;;;;;;;;;;;;19.91;49.00;99592.78;1821080;79;20204;-77
2021/05/08 03:59:59;;;;;;;;;;;;;;;19.84;49.05;99590.72;1820458;79;20109;-78
2021/05/08 04:02:26;;;;;;;;;;;;;;;19.79;49.05;99590.62;1818771;79;20577;-79
2021/05/08 04:04:53;;;;;;;;;;;;;;;19.75;49.19;99592.98;1818042;79;20530;-78
2021/05/08 04:07:20;;;;;;;;;;;;;;;19.75;49.28;99592.98;1819256;79;20204;-78
2021/05/08 04:09:48;;;;;;;;;;;;;;;19.80;49.28;99601.77;1819976;79;20489;-79
2021/05/08 04:12:15;;;;;;;;;;;;;;;19.83;49.32;99599.41;1819489;79;20231;-80
2021/05/08 04:14:42;;;;;;;;;;;;;;;19.83;49.36;99604.02;1826120;77;20289;-80
2021/05/08 04:17:11;;;;;;;;;;;;;;;19.85;49.29;99599.16;1852150;77;20663;-81
2021/05/08 04:19:39;;;;;;;;;;;;;;;19.85;49.22;99601.88;1845088;77;20232;-79
2021/05/08 04:22:06;;;;;;;;;;;;;;;19.86;49.15;99602.20;1824225;77;20278;-79
2021/05/08 04:24:33;;;;;;;;;;;;;;;19.88;49.27;99598.16;1833647;77;20469;-80
2021/05/08 04:27:02;;;;;;;;;;;;;;;19.89;49.43;99605.23;1855077;77;20258;-80
2021/05/08 04:29:29;;;;;;;;;;;;;;;19.89;49.64;99605.77;1863072;77;20296;-79
2021/05/08 04:31:56;;;;;;;;;;;;;;;19.83;49.89;99617.61;1865653;77;20256;-78
2021/05/08 04:34:23;;;;;;;;;;;;;;;19.76;50.11;99621.30;1858516;77;20268;-79
2021/05/08 04:36:50;;;;;;;;;;;;;;;19.74;50.33;99615.25;1816501;79;20301;-79
2021/05/08 04:39:18;;;;;;;;;;;;;;;19.79;50.49;99614.54;1815879;77;20291;-79
2021/05/08 04:41:45;;;;;;;;;;;;;;;19.67;50.80;99610.50;1847273;77;20261;-80
2021/05/08 04:44:13;;;;;;;;;;;;;;;19.73;50.81;99600.02;1846611;77;20242;-78
2021/05/08 04:46:42;;;;;;;;;;;;;;;19.61;51.15;99584.27;1823457;78;20265;-80
2021/05/08 04:49:09;;;;;;;;;;;;;;;19.71;50.99;99591.30;1842714;77;20297;-80
2021/05/08 04:51:38;;;;;;;;;;;;;;;19.68;51.08;99591.77;1825904;78;20295;-80
2021/05/08 04:54:05;;;;;;;;;;;;;;;19.68;51.18;99589.05;1817038;78;20244;-78
2021/05/08 04:56:33;;;;;;;;;;;;;;;19.69;51.28;99605.64;1817068;79;20287;-79
2021/05/08 04:59:01;;;;;;;;;;;;;;;19.62;51.55;99619.90;1816965;79;20655;-78
2021/05/08 05:01:30;;;;;;;;;;;;;;;19.64;51.65;99627.27;1795366;79;20219;-79
2021/05/08 05:03:57;;;;;;;;;;;;;;;19.69;51.60;99636.88;1818603;79;20482;-79
2021/05/08 05:06:24;;;;;;;;;;;;;;;19.71;51.58;99630.70;1818547;78;20216;-79
2021/05/08 05:08:51;;;;;;;;;;;;;;;19.69;51.62;99634.70;1819260;78;20216;-80
2021/05/08 05:11:21;;;;;;;;;;;;;;;19.67;51.69;99634.13;1819646;79;20224;-80
2021/05/08 05:13:49;;;;;;;;;;;;;;;19.66;51.71;99637.34;1818821;79;20248;-78
2021/05/08 05:16:16;;;;;;;;;;;;;;;19.65;51.72;99633.52;1818715;77;20461;-79
2021/05/08 05:18:45;;;;;;;;;;;;;;;19.63;51.79;99628.34;1818434;77;20249;-77
2021/05/08 05:21:12;;;;;;;;;;;;;;;19.63;51.93;99619.36;1786789;78;20379;-78
2021/05/08 05:23:39;;;;;;;;;;;;;;;19.64;52.00;99623.19;1796434;80;20213;-78
2021/05/08 05:26:06;;;;;;;;;;;;;;;19.66;52.04;99622.41;1821118;79;20220;-77
2021/05/08 05:28:33;;;;;;;;;;;;;;;19.67;52.01;99622.73;1820631;79;20272;-77
2021/05/08 05:31:00;;;;;;;;;;;;;;;19.67;52.00;99621.37;1794746;80;20238;-78
2021/05/08 05:33:27;;;;;;;;;;;;;;;19.66;52.07;99618.87;1764107;80;20244;-79
2021/05/08 05:35:56;;;;;;;;;;;;;;;19.63;52.16;99622.91;1781175;78;20215;-78
2021/05/08 05:38:24;;;;;;;;;;;;;;;19.64;52.10;99634.06;1743685;82;20221;-78
2021/05/08 05:40:53;;;;;;;;;;;;;;;19.63;52.20;99635.66;1743179;82;20395;-79
2021/05/08 05:43:20;;;;;;;;;;;;;;;19.65;52.18;99643.85;1743027;82;20233;-78
2021/05/08 05:45:48;;;;;;;;;;;;;;;19.69;52.16;99647.75;1743693;82;20233;-79
2021/05/08 05:48:15;;;;;;;;;;;;;;;19.73;52.11;99656.27;1779022;80;20252;-79
2021/05/08 05:50:43;;;;;;;;;;;;;;;19.72;52.10;99652.72;1780622;80;20211;-79
2021/05/08 05:53:10;;;;;;;;;;;;;;;19.72;52.05;99654.08;1742403;82;20284;-79
2021/05/08 05:55:37;;;;;;;;;;;;;;;19.69;52.05;99652.36;1742549;82;20210;-79
2021/05/08 05:58:04;;;;;;;;;;;;;;;19.69;52.06;99654.55;1743493;82;20276;-78
2021/05/08 06:00:31;;;;;;;;;;;;;;;19.68;52.05;99655.62;1680282;81;20313;-77
2021/05/08 06:02:58;;;;;;;;;;;;;;;19.67;52.08;99653.97;1782026;79;20251;-78
2021/05/08 06:05:25;;;;;;;;;;;;;;;19.67;52.05;99647.17;1779550;80;20223;-78
2021/05/08 06:07:53;;;;;;;;;;;;;;;19.68;52.11;99648.82;1810652;79;20267;-79
2021/05/08 06:10:20;;;;;;;;;;;;;;;19.67;52.16;99648.53;1810772;79;20268;-79
2021/05/08 06:12:46;;;;;;;;;;;;;;;19.68;52.23;99646.11;1805078;79;20252;-79
2021/05/08 06:15:14;;;;;;;;;;;;;;;19.70;52.25;99643.97;1760021;80;20293;-79
2021/05/08 06:17:41;;;;;;;;;;;;;;;19.68;52.15;99634.41;1777124;80;20578;-79
2021/05/08 06:20:11;;;;;;;;;;;;;;;19.65;52.23;99643.85;1749649;82;20260;-78
2021/05/08 06:22:39;;;;;;;;;;;;;;;19.67;52.20;99655.33;1752406;82;20203;-79
2021/05/08 06:25:07;;;;;;;;;;;;;;;19.66;52.17;99647.39;1787554;79;20479;-78
2021/05/08 06:27:35;;;;;;;;;;;;;;;19.65;52.15;99652.00;1775572;79;20227;-78
2021/05/08 06:30:03;;;;;;;;;;;;;;;19.64;52.15;99657.16;1773624;81;20283;-78
2021/05/08 06:32:30;;;;;;;;;;;;;;;19.66;52.14;99655.55;1773269;80;20306;-78
2021/05/08 06:34:58;;;;;;;;;;;;;;;19.67;52.18;99642.28;1773787;81;20234;-78
2021/05/08 06:37:25;;;;;;;;;;;;;;;19.68;51.98;99632.52;1774060;80;20167;-79
2021/05/08 06:39:56;;;;;;;;;;;;;;;19.70;51.94;99624.94;1773491;81;20270;-79
2021/05/08 06:42:23;;;;;;;;;;;;;;;19.69;51.99;99623.30;1794073;79;20269;-78
2021/05/08 06:44:51;;;;;;;;;;;;;;;19.68;52.04;99624.38;1804475;79;20585;-79
2021/05/08 06:47:20;;;;;;;;;;;;;;;19.69;52.01;99626.55;1774189;80;20292;-78
2021/05/08 06:49:49;;;;;;;;;;;;;;;19.71;52.07;99633.41;1777409;80;20270;-79
2021/05/08 06:52:16;;;;;;;;;;;;;;;19.71;51.99;99637.48;1744351;82;20256;-78
2021/05/08 06:54:43;;;;;;;;;;;;;;;19.70;51.92;99627.66;1778068;80;20262;-79
2021/05/08 06:57:10;;;;;;;;;;;;;;;19.70;52.00;99622.23;1782977;79;20267;-78
2021/05/08 06:59:37;;;;;;;;;;;;;;;19.71;52.09;99627.13;1778216;80;20234;-78
2021/05/08 07:02:05;;;;;;;;;;;;;;;19.72;52.17;99628.80;1757990;80;20214;-80
2021/05/08 07:04:33;;;;;;;;;;;;;;;19.73;52.15;99629.09;1780028;80;20274;-78
2021/05/08 07:07:00;;;;;;;;;;;;;;;19.75;52.06;99637.28;1800308;79;20274;-80
2021/05/08 07:09:27;;;;;;;;;;;;;;;19.79;52.07;99646.33;1735696;82;20305;-78
2021/05/08 07:11:57;;;;;;;;;;;;;;;19.79;52.08;99650.40;1736372;82;20288;-80
2021/05/08 07:14:24;;;;;;;;;;;;;;;19.81;51.98;99655.08;1731165;82;20281;-77
2021/05/08 07:16:55;;;;;;;;;;;;;;;19.80;51.91;99659.66;1758707;80;38510;-78
2021/05/08 07:19:23;;;;;;;;;;;;;;;19.82;51.98;99678.47;1755395;80;20727;-79
2021/05/08 07:21:50;;;;;;;;;;;;;;;19.80;51.97;99686.02;1746271;82;20662;-79
2021/05/08 07:24:19;;;;;;;;;;;;;;;19.79;51.97;99693.34;1754709;80;20277;-79
2021/05/08 07:26:47;;;;;;;;;;;;;;;19.73;52.18;99702.45;1778153;80;20274;-80
2021/05/08 07:29:16;;;;;;;;;;;;;;;19.74;52.25;99704.09;1779248;79;20242;-80
2021/05/08 07:31:43;;;;;;;;;;;;;;;19.74;52.18;99707.64;1797167;79;20270;-79
2021/05/08 07:34:10;;;;;;;;;;;;;;;19.78;52.12;99716.69;1777872;80;20278;-79
2021/05/08 07:36:37;;;;;;;;;;;;;;;19.80;52.19;99718.63;1740821;82;20280;-79
2021/05/08 07:39:05;;;;;;;;;;;;;;;19.80;52.16;99722.70;1778790;80;20278;-79
2021/05/08 07:41:37;;;;;;;;;;;;;;;19.81;52.12;99723.02;1741902;82;20562;-79
2021/05/08 07:44:07;;;;;;;;;;;;;;;19.81;52.12;99731.17;1774339;80;20278;-80
2021/05/08 07:46:35;;;;;;;;;;;;;;;19.70;52.34;99739.59;1743872;82;20288;-81
2021/05/08 07:49:03;;;;;;;;;;;;;;;19.70;52.30;99739.06;1769553;80;20290;-78
2021/05/08 07:51:30;;;;;;;;;;;;;;;19.69;52.31;99728.44;1770093;80;20657;-79
2021/05/08 07:53:58;;;;;;;;;;;;;;;19.72;52.16;99737.48;1756802;80;20993;-79
2021/05/08 07:56:25;;;;;;;;;;;;;;;19.73;52.11;99742.67;1756458;80;20255;-80
2021/05/08 07:58:52;;;;;;;;;;;;;;;19.75;52.04;99748.69;1777133;80;20279;-80
2021/05/08 08:01:21;;;;;;;;;;;;;;;19.82;52.00;99755.92;1777016;80;20294;-80
2021/05/08 08:03:52;;;;;;;;;;;;;;;19.84;51.92;99753.24;1792184;80;20272;-79
2021/05/08 08:06:19;;;;;;;;;;;;;;;19.85;51.87;99766.30;1792874;80;20269;-79
2021/05/08 08:08:46;;;;;;;;;;;;;;;19.82;51.91;99762.72;1793938;80;20544;-78
2021/05/08 08:11:13;;;;;;;;;;;;;;;19.76;51.86;99762.59;1782523;80;20639;-81
2021/05/08 08:13:42;;;;;;;;;;;;;;;19.74;52.02;99755.19;1779331;80;20247;-78
2021/05/08 08:16:10;;;;;;;;;;;;;;;19.74;52.04;99764.70;1778219;80;20278;-78
2021/05/08 08:18:37;;;;;;;;;;;;;;;19.77;52.10;99760.70;1779847;80;20283;-79
2021/05/08 08:21:04;;;;;;;;;;;;;;;19.80;52.07;99766.18;1775082;79;20257;-77
2021/05/08 08:23:32;;;;;;;;;;;;;;;19.81;52.10;99758.34;1779025;80;20474;-77
2021/05/08 08:25:59;;;;;;;;;;;;;;;19.82;52.08;99752.67;1778072;80;21048;-78
2021/05/08 08:28:26;;;;;;;;;;;;;;;19.84;52.10;99757.86;1778008;80;20282;-78
2021/05/08 08:30:53;;;;;;;;;;;;;;;19.83;52.20;99753.48;1777536;80;20286;-78
2021/05/08 08:33:20;;;;;;;;;;;;;;;19.83;52.25;99749.41;1782402;79;20548;-79
2021/05/08 08:35:47;;;;;;;;;;;;;;;19.84;52.39;99742.37;1810211;79;20196;-79
2021/05/08 08:38:15;;;;;;;;;;;;;;;19.86;52.54;99740.80;1810751;79;20565;-80
2021/05/08 08:40:46;;;;;;;;;;;;;;;19.91;52.67;99747.70;1808992;79;20303;-80
2021/05/08 08:43:13;;;;;;;;;;;;;;;19.95;52.62;99757.87;1806622;79;20591;-80
2021/05/08 08:45:41;;;;;;;;;;;;;;;20.00;52.62;99761.23;1782734;79;20262;-79
2021/05/08 08:48:08;;;;;;;;;;;;;;;20.06;52.51;99769.80;1777464;80;20314;-80
2021/05/08 08:50:37;;;;;;;;;;;;;;;20.10;52.28;99775.05;1776222;80;20280;-78
2021/05/08 08:53:04;;;;;;;;;;;;;;;20.14;52.12;99765.90;1754223;80;20297;-79
2021/05/08 08:55:33;;;;;;;;;;;;;;;20.18;52.06;99769.27;1776602;80;20437;-79
2021/05/08 08:58:04;;;;;;;;;;;;;;;20.20;51.89;99754.88;1778490;80;20198;-78
2021/05/08 09:00:29;;;;;;;;;;;;;;;20.20;52.13;99759.50;1757348;80;20281;-78
2021/05/08 09:02:56;;;;;;;;;;;;;;;20.22;52.16;99754.66;1800065;79;20366;-79
2021/05/08 09:05:25;;;;;;;;;;;;;;;20.25;52.00;99745.47;1809806;79;20251;-79
2021/05/08 09:07:53;;;;;;;;;;;;;;;20.32;52.16;99749.44;1812280;79;20478;-79
2021/05/08 09:10:30;;;;;;;;;;;;;;;20.40;52.11;99746.89;1813013;79;20415;-79
2021/05/08 09:12:58;;;;;;;;;;;;;;;20.44;51.74;99741.27;1771667;81;20247;-79
2021/05/08 09:15:40;;;;;;;;;;;;;;;20.47;51.56;99751.65;1817082;78;20268;-78
2021/05/08 09:18:10;;;;;;;;;;;;;;;20.50;51.42;99764.81;1815310;79;20271;-79
2021/05/08 09:20:44;;;;;;;;;;;;;;;20.48;51.46;99771.01;1756011;80;20225;-79
2021/05/08 09:23:21;;;;;;;;;;;;;;;20.46;51.31;99782.64;1761516;80;20208;-80
2021/05/08 09:25:56;;;;;;;;;;;;;;;20.42;51.06;99790.45;1783366;80;20245;-77
2021/05/08 09:28:26;;;;;;;;;;;;;;;20.39;50.64;99805.05;1795143;79;20278;-78
2021/05/08 09:30:54;;;;;;;;;;;;;;;20.35;50.57;99805.23;1762298;80;20294;-80
2021/05/08 09:33:26;;;;;;;;;;;;;;;20.35;50.63;99803.87;1762273;80;20293;-79
2021/05/08 09:35:58;;;;;;;;;;;;;;;20.35;50.68;99807.95;1770902;80;20301;-78
2021/05/08 09:38:32;;;;;;;;;;;;;;;20.35;50.48;99802.52;1753589;82;20284;-79
2021/05/08 09:40:59;;;;;;;;;;;;;;;20.31;50.54;99814.42;1766735;80;20266;-79
2021/05/08 09:43:26;;;;;;;;;;;;;;;20.34;50.47;99813.11;1737137;81;20300;-78
2021/05/08 09:45:56;;;;;;;;;;;;;;;20.33;50.16;99806.02;1730427;82;20299;-79
2021/05/08 09:48:33;;;;;;;;;;;;;;;20.30;50.12;99801.05;1758935;80;20641;-79
2021/05/08 09:51:23;;;;;;;;;;;;;;;20.31;50.19;99800.83;1752404;80;20272;-79
2021/05/08 09:53:54;;;;;;;;;;;;;;;20.33;50.04;99811.46;1763143;80;20637;-80
2021/05/08 09:56:38;;;;;;;;;;;;;;;20.35;49.78;99812.89;1773053;80;20257;-79
2021/05/08 09:59:26;;;;;;;;;;;;;;;20.39;49.93;99818.66;1763875;80;20260;-80
2021/05/08 10:02:08;;;;;;;;;;;;;;;20.44;49.50;99835.12;1758711;80;20270;-81
2021/05/08 10:04:44;;;;;;;;;;;;;;;20.43;48.47;99837.52;1767230;80;20316;-79
2021/05/08 10:07:21;;;;;;;;;;;;;;;20.40;48.15;99846.17;1757535;80;20308;-79
2021/05/08 10:09:52;;;;;;;;;;;;;;;20.36;48.09;99866.22;1784103;80;20246;-78
2021/05/08 10:12:22;;;;;;;;;;;;;;;20.33;47.75;99872.66;1784874;80;20254;-80
2021/05/08 10:14:52;;;;;;;;;;;;;;;20.26;47.34;99885.85;1784234;80;20417;-79
2021/05/08 10:17:21;;;;;;;;;;;;;;;20.20;47.03;99896.29;1774756;80;20257;-79
2021/05/08 10:19:50;;;;;;;;;;;;;;;20.18;46.73;99891.63;1784042;80;20278;-80
2021/05/08 10:22:17;;;;;;;;;;;;;;;20.13;46.57;99899.66;1769464;80;20273;-79
2021/05/08 10:24:46;;;;;;;;;;;;;;;20.03;46.53;99903.50;1753734;82;20556;-79
2021/05/08 10:27:13;;;;;;;;;;;;;;;19.97;46.82;99907.95;1753193;82;20260;-79
2021/05/08 10:29:45;;;;;;;;;;;;;;;19.92;47.05;99909.19;1765897;80;20314;-79
2021/05/08 10:32:14;;;;;;;;;;;;;;;19.89;47.24;99913.72;1773525;80;20558;-80
2021/05/08 10:34:54;;;;;;;;;;;;;;;19.92;47.27;99923.31;1756063;80;20330;-80
2021/05/08 10:37:24;;;;;;;;;;;;;;;19.93;47.20;99927.14;1754961;82;20302;-78
2021/05/08 10:40:02;;;;;;;;;;;;;;;19.88;47.22;99937.89;1772866;80;20286;-80
2021/05/08 10:42:47;;;;;;;;;;;;;;;19.87;47.05;99944.39;1787238;80;20258;-78
2021/05/08 10:45:21;;;;;;;;;;;;;;;19.86;46.71;99944.64;1787860;80;20594;-79
2021/05/08 10:47:59;;;;;;;;;;;;;;;19.85;46.58;99948.39;1786806;80;20270;-79
2021/05/08 10:50:47;;;;;;;;;;;;;;;19.85;46.19;99951.11;1755851;80;20302;-78
2021/05/08 10:53:12;;;;;;;;;;;;;;;19.82;45.86;99955.67;1753849;81;20237;-79
2021/05/08 10:55:51;;;;;;;;;;;;;;;19.69;45.59;99963.47;1753340;81;20287;-80
2021/05/08 10:58:37;;;;;;;;;;;;;;;19.64;45.44;99962.80;1754552;82;20225;-80
2021/05/08 11:01:08;;;;;;;;;;;;;;;19.61;45.07;99970.04;1730270;82;20272;-77
2021/05/08 11:03:48;;;;;;;;;;;;;;;19.54;44.92;99980.15;1760030;80;20313;-77
2021/05/08 11:06:15;;;;;;;;;;;;;;;19.46;44.51;99988.60;1784520;80;20282;-79
2021/05/08 11:08:48;;;;;;;;;;;;;;;19.42;44.09;99978.72;1783088;80;20274;-79
2021/05/08 11:11:23;;;;;;;;;;;;;;;19.37;43.67;99985.89;1784962;80;20254;-79
2021/05/08 11:14:00;;;;;;;;;;;;;;;19.31;43.73;99985.45;1762179;80;20287;-79
2021/05/08 11:16:30;;;;;;;;;;;;;;;19.29;43.78;99980.77;1785697;79;20218;-78
2021/05/08 11:18:58;;;;;;;;;;;;;;;19.29;43.95;99987.55;1787831;79;20305;-78
2021/05/08 11:21:32;;;;;;;;;;;;;;;19.31;43.84;99985.45;1777787;78;20295;-79
2021/05/08 11:24:04;;;;;;;;;;;;;;;19.35;43.60;99996.14;1777942;80;20286;-80
2021/05/08 11:26:38;;;;;;;;;;;;;;;19.32;43.71;99994.72;1770396;79;20302;-78
2021/05/08 11:29:09;;;;;;;;;;;;;;;19.31;43.69;99999.03;1766971;80;20263;-79
2021/05/08 11:31:39;;;;;;;;;;;;;;;19.31;43.94;100005.82;1793420;79;20307;-79
2021/05/08 11:34:18;;;;;;;;;;;;;;;19.33;43.75;100006.41;1815608;79;20292;-79
2021/05/08 11:36:48;;;;;;;;;;;;;;;19.28;43.97;99999.48;1808567;79;20250;-80
2021/05/08 11:39:19;;;;;;;;;;;;;;;19.32;44.15;99998.80;1778844;80;20293;-78
2021/05/08 11:41:48;;;;;;;;;;;;;;;19.37;44.03;100006.27;1744132;82;20293;-79
2021/05/08 11:44:23;;;;;;;;;;;;;;;19.40;43.83;100005.82;1719431;82;20273;-80
2021/05/08 11:46:54;;;;;;;;;;;;;;;19.42;43.93;100015.38;1744887;81;20382;-79
2021/05/08 11:49:34;;;;;;;;;;;;;;;19.43;43.30;100009.42;1758038;80;20509;-79
2021/05/08 11:52:03;;;;;;;;;;;;;;;19.39;43.57;100005.49;1760217;81;20232;-80
2021/05/08 11:54:39;;;;;;;;;;;;;;;19.42;43.89;100005.05;1773321;80;20544;-79
2021/05/08 11:57:21;;;;;;;;;;;;;;;19.42;43.51;100014.56;1773130;80;20273;-79
2021/05/08 11:59:51;;;;;;;;;;;;;;;19.44;42.94;100021.44;1779790;80;20243;-80
2021/05/08 12:02:22;;;;;;;;;;;;;;;19.45;42.73;100023.63;1779428;80;20283;-79
2021/05/08 12:04:56;;;;;;;;;;;;;;;19.45;42.33;100033.95;1780125;80;20591;-79
2021/05/08 12:07:31;;;;;;;;;;;;;;;19.44;41.82;100045.02;1764932;80;20534;-79
2021/05/08 12:10:19;;;;;;;;;;;;;;;19.36;41.95;100033.95;1768353;80;20270;-78
2021/05/08 12:12:56;;;;;;;;;;;;;;;19.34;42.13;100039.30;1779264;80;20235;-79
2021/05/08 12:15:28;;;;;;;;;;;;;;;19.32;41.96;100042.78;1778990;80;20255;-79
2021/05/08 12:17:59;;;;;;;;;;;;;;;19.29;41.87;100041.33;1779028;80;20239;-79
2021/05/08 12:20:28;;;;;;;;;;;;;;;19.25;41.66;100035.52;1781316;80;20266;-78
2021/05/08 12:23:00;;;;;;;;;;;;;;;19.23;41.92;100043.06;1761397;80;20268;-79
2021/05/08 12:25:27;;;;;;;;;;;;;;;19.24;42.32;100042.00;1748228;82;20293;-80
2021/05/08 12:28:19;;;;;;;;;;;;;;;19.30;42.19;100042.16;1747277;82;20295;-79
2021/05/08 12:30:48;;;;;;;;;;;;;;;19.31;41.90;100043.31;1746800;81;20365;-79
2021/05/08 12:33:16;;;;;;;;;;;;;;;19.35;41.80;100048.59;1748057;82;20276;-80